sensor_id;sensor_type;location;lat;lon;timestamp;P1;durP1;ratioP1;P2;durP2;ratioP2
5805;SDS011;2929;50.810;8.342;2022-11-20T00:01:30;15.07;;;8.67;;
5805;SDS011;2929;50.810;8.342;2022-11-20T00:03:57;18.37;;;8.93;;
5805;SDS011;2929;50.810;8.342;2022-11-20T00:06:25;18.23;;;9.23;;
5805;SDS011;2929;50.810;8.342;2022-11-20T00:08:53;17.00;;;9.70;;
5805;SDS011;2929;50.810;8.342;2022-11-20T00:11:22;16.43;;;9.40;;
5805;SDS011;2929;50.810;8.342;2022-11-20T00:13:53;17.90;;;9.50;;
5805;SDS011;2929;50.810;8.342;2022-11-20T00:16:22;18.20;;;9.17;;
5805;SDS011;2929;50.810;8.342;2022-11-20T00:18:53;17.57;;;10.13;;
5805;SDS011;2929;50.810;8.342;2022-11-20T00:21:20;14.60;;;8.87;;
5805;SDS011;2929;50.810;8.342;2022-11-20T00:23:49;15.40;;;9.20;;
5805;SDS011;2929;50.810;8.342;2022-11-20T00:26:17;14.33;;;9.17;;
5805;SDS011;2929;50.810;8.342;2022-11-20T00:28:48;16.13;;;9.07;;
5805;SDS011;2929;50.810;8.342;2022-11-20T00:31:17;17.83;;;8.73;;
5805;SDS011;2929;50.810;8.342;2022-11-20T00:33:45;14.03;;;8.60;;
5805;SDS011;2929;50.810;8.342;2022-11-20T00:36:14;18.57;;;8.77;;
5805;SDS011;2929;50.810;8.342;2022-11-20T00:38:42;16.00;;;9.23;;
5805;SDS011;2929;50.810;8.342;2022-11-20T00:41:11;15.20;;;9.30;;
5805;SDS011;2929;50.810;8.342;2022-11-20T00:43:39;16.10;;;9.07;;
5805;SDS011;2929;50.810;8.342;2022-11-20T00:46:07;17.03;;;8.90;;
5805;SDS011;2929;50.810;8.342;2022-11-20T00:48:35;14.83;;;8.33;;
5805;SDS011;2929;50.810;8.342;2022-11-20T00:51:02;13.53;;;7.60;;
5805;SDS011;2929;50.810;8.342;2022-11-20T00:53:31;18.87;;;9.23;;
5805;SDS011;2929;50.810;8.342;2022-11-20T00:55:59;14.80;;;8.33;;
5805;SDS011;2929;50.810;8.342;2022-11-20T00:58:28;16.87;;;8.23;;
5805;SDS011;2929;50.810;8.342;2022-11-20T01:00:59;14.20;;;8.17;;
5805;SDS011;2929;50.810;8.342;2022-11-20T01:03:27;14.43;;;7.40;;
5805;SDS011;2929;50.810;8.342;2022-11-20T01:05:59;12.30;;;7.07;;
5805;SDS011;2929;50.810;8.342;2022-11-20T01:08:28;14.73;;;7.77;;
5805;SDS011;2929;50.810;8.342;2022-11-20T01:10:59;11.77;;;7.73;;
5805;SDS011;2929;50.810;8.342;2022-11-20T01:13:28;20.70;;;9.50;;
5805;SDS011;2929;50.810;8.342;2022-11-20T01:16:07;15.93;;;7.80;;
5805;SDS011;2929;50.810;8.342;2022-11-20T01:18:35;12.50;;;7.63;;
5805;SDS011;2929;50.810;8.342;2022-11-20T01:21:03;15.17;;;8.50;;
5805;SDS011;2929;50.810;8.342;2022-11-20T01:23:32;15.10;;;8.00;;
5805;SDS011;2929;50.810;8.342;2022-11-20T01:26:02;12.43;;;8.13;;
5805;SDS011;2929;50.810;8.342;2022-11-20T01:28:30;15.90;;;8.07;;
5805;SDS011;2929;50.810;8.342;2022-11-20T01:30:57;14.87;;;8.50;;
5805;SDS011;2929;50.810;8.342;2022-11-20T01:33:25;15.27;;;8.00;;
5805;SDS011;2929;50.810;8.342;2022-11-20T01:35:52;14.40;;;7.80;;
5805;SDS011;2929;50.810;8.342;2022-11-20T01:38:19;14.90;;;7.67;;
5805;SDS011;2929;50.810;8.342;2022-11-20T01:40:53;11.80;;;7.53;;
5805;SDS011;2929;50.810;8.342;2022-11-20T01:43:23;17.60;;;8.10;;
5805;SDS011;2929;50.810;8.342;2022-11-20T01:46:01;13.93;;;7.87;;
5805;SDS011;2929;50.810;8.342;2022-11-20T01:48:40;11.57;;;6.80;;
5805;SDS011;2929;50.810;8.342;2022-11-20T01:51:12;13.27;;;8.20;;
5805;SDS011;2929;50.810;8.342;2022-11-20T01:53:47;14.13;;;8.30;;
5805;SDS011;2929;50.810;8.342;2022-11-20T01:56:16;17.40;;;9.10;;
5805;SDS011;2929;50.810;8.342;2022-11-20T01:58:46;14.90;;;8.40;;
5805;SDS011;2929;50.810;8.342;2022-11-20T02:01:16;15.30;;;8.47;;
5805;SDS011;2929;50.810;8.342;2022-11-20T02:03:43;18.50;;;9.10;;
5805;SDS011;2929;50.810;8.342;2022-11-20T02:06:12;12.90;;;7.87;;
5805;SDS011;2929;50.810;8.342;2022-11-20T02:08:45;15.63;;;8.87;;
5805;SDS011;2929;50.810;8.342;2022-11-20T02:11:12;15.70;;;9.17;;
5805;SDS011;2929;50.810;8.342;2022-11-20T02:13:39;15.63;;;8.43;;
5805;SDS011;2929;50.810;8.342;2022-11-20T02:16:21;15.70;;;8.90;;
5805;SDS011;2929;50.810;8.342;2022-11-20T02:18:49;14.20;;;8.57;;
5805;SDS011;2929;50.810;8.342;2022-11-20T02:21:23;14.60;;;8.77;;
5805;SDS011;2929;50.810;8.342;2022-11-20T02:24:06;12.70;;;7.30;;
5805;SDS011;2929;50.810;8.342;2022-11-20T02:26:47;14.23;;;8.60;;
5805;SDS011;2929;50.810;8.342;2022-11-20T02:29:18;14.30;;;8.70;;
5805;SDS011;2929;50.810;8.342;2022-11-20T02:31:50;12.67;;;7.40;;
5805;SDS011;2929;50.810;8.342;2022-11-20T02:34:17;14.27;;;8.70;;
5805;SDS011;2929;50.810;8.342;2022-11-20T02:36:44;13.90;;;8.77;;
5805;SDS011;2929;50.810;8.342;2022-11-20T02:39:14;17.23;;;8.23;;
5805;SDS011;2929;50.810;8.342;2022-11-20T02:41:42;18.70;;;9.13;;
5805;SDS011;2929;50.810;8.342;2022-11-20T02:44:09;12.67;;;8.40;;
5805;SDS011;2929;50.810;8.342;2022-11-20T02:46:37;14.20;;;8.83;;
5805;SDS011;2929;50.810;8.342;2022-11-20T02:49:04;13.50;;;8.33;;
5805;SDS011;2929;50.810;8.342;2022-11-20T02:51:31;15.30;;;8.70;;
5805;SDS011;2929;50.810;8.342;2022-11-20T02:53:59;14.40;;;8.00;;
5805;SDS011;2929;50.810;8.342;2022-11-20T02:56:27;15.30;;;8.50;;
5805;SDS011;2929;50.810;8.342;2022-11-20T02:58:55;14.00;;;8.27;;
5805;SDS011;2929;50.810;8.342;2022-11-20T03:01:22;22.80;;;9.60;;
5805;SDS011;2929;50.810;8.342;2022-11-20T03:03:49;20.60;;;9.30;;
5805;SDS011;2929;50.810;8.342;2022-11-20T03:06:17;13.93;;;8.03;;
5805;SDS011;2929;50.810;8.342;2022-11-20T03:08:44;15.80;;;8.90;;
5805;SDS011;2929;50.810;8.342;2022-11-20T03:11:11;14.40;;;8.43;;
5805;SDS011;2929;50.810;8.342;2022-11-20T03:13:39;13.70;;;7.80;;
5805;SDS011;2929;50.810;8.342;2022-11-20T03:16:10;13.90;;;8.47;;
5805;SDS011;2929;50.810;8.342;2022-11-20T03:18:39;15.57;;;8.67;;
5805;SDS011;2929;50.810;8.342;2022-11-20T03:21:07;15.50;;;8.83;;
5805;SDS011;2929;50.810;8.342;2022-11-20T03:23:35;16.27;;;8.60;;
5805;SDS011;2929;50.810;8.342;2022-11-20T03:26:08;17.30;;;9.13;;
5805;SDS011;2929;50.810;8.342;2022-11-20T03:28:36;17.10;;;8.57;;
5805;SDS011;2929;50.810;8.342;2022-11-20T03:31:08;15.00;;;8.00;;
5805;SDS011;2929;50.810;8.342;2022-11-20T03:33:37;13.97;;;8.40;;
5805;SDS011;2929;50.810;8.342;2022-11-20T03:36:05;14.83;;;8.33;;
5805;SDS011;2929;50.810;8.342;2022-11-20T03:38:34;15.07;;;9.20;;
5805;SDS011;2929;50.810;8.342;2022-11-20T03:41:02;17.30;;;9.20;;
5805;SDS011;2929;50.810;8.342;2022-11-20T03:43:30;14.60;;;7.83;;
5805;SDS011;2929;50.810;8.342;2022-11-20T03:45:58;15.70;;;9.13;;
5805;SDS011;2929;50.810;8.342;2022-11-20T03:48:26;12.20;;;7.53;;
5805;SDS011;2929;50.810;8.342;2022-11-20T03:51:05;17.60;;;8.90;;
5805;SDS011;2929;50.810;8.342;2022-11-20T03:53:33;15.40;;;8.63;;
5805;SDS011;2929;50.810;8.342;2022-11-20T03:56:00;15.67;;;8.43;;
5805;SDS011;2929;50.810;8.342;2022-11-20T03:58:27;15.50;;;8.87;;
5805;SDS011;2929;50.810;8.342;2022-11-20T04:00:54;16.80;;;9.20;;
5805;SDS011;2929;50.810;8.342;2022-11-20T04:03:21;16.90;;;8.87;;
5805;SDS011;2929;50.810;8.342;2022-11-20T04:05:49;14.20;;;8.13;;
5805;SDS011;2929;50.810;8.342;2022-11-20T04:08:16;18.40;;;9.53;;
5805;SDS011;2929;50.810;8.342;2022-11-20T04:10:43;17.10;;;8.80;;
5805;SDS011;2929;50.810;8.342;2022-11-20T04:13:10;16.70;;;8.63;;
5805;SDS011;2929;50.810;8.342;2022-11-20T04:15:37;18.63;;;9.50;;
5805;SDS011;2929;50.810;8.342;2022-11-20T04:18:04;11.80;;;7.67;;
5805;SDS011;2929;50.810;8.342;2022-11-20T04:20:31;15.07;;;8.67;;
5805;SDS011;2929;50.810;8.342;2022-11-20T04:23:00;14.70;;;8.30;;
5805;SDS011;2929;50.810;8.342;2022-11-20T04:25:27;15.90;;;9.47;;
5805;SDS011;2929;50.810;8.342;2022-11-20T04:27:54;15.93;;;9.30;;
5805;SDS011;2929;50.810;8.342;2022-11-20T04:30:21;16.23;;;9.10;;
5805;SDS011;2929;50.810;8.342;2022-11-20T04:32:48;16.70;;;9.00;;
5805;SDS011;2929;50.810;8.342;2022-11-20T04:35:15;17.03;;;8.70;;
5805;SDS011;2929;50.810;8.342;2022-11-20T04:37:42;18.27;;;9.30;;
5805;SDS011;2929;50.810;8.342;2022-11-20T04:40:11;14.97;;;9.13;;
5805;SDS011;2929;50.810;8.342;2022-11-20T04:42:38;14.20;;;8.30;;
5805;SDS011;2929;50.810;8.342;2022-11-20T04:45:05;16.17;;;9.60;;
5805;SDS011;2929;50.810;8.342;2022-11-20T04:47:33;21.97;;;9.37;;
5805;SDS011;2929;50.810;8.342;2022-11-20T04:50:00;21.60;;;9.80;;
5805;SDS011;2929;50.810;8.342;2022-11-20T04:52:27;16.73;;;9.40;;
5805;SDS011;2929;50.810;8.342;2022-11-20T04:54:54;16.03;;;9.13;;
5805;SDS011;2929;50.810;8.342;2022-11-20T04:57:22;18.63;;;9.63;;
5805;SDS011;2929;50.810;8.342;2022-11-20T04:59:49;22.33;;;10.53;;
5805;SDS011;2929;50.810;8.342;2022-11-20T05:02:16;17.30;;;10.20;;
5805;SDS011;2929;50.810;8.342;2022-11-20T05:04:43;22.20;;;11.00;;
5805;SDS011;2929;50.810;8.342;2022-11-20T05:07:11;19.70;;;11.13;;
5805;SDS011;2929;50.810;8.342;2022-11-20T05:09:38;20.37;;;10.47;;
5805;SDS011;2929;50.810;8.342;2022-11-20T05:12:06;23.40;;;10.90;;
5805;SDS011;2929;50.810;8.342;2022-11-20T05:14:35;23.93;;;11.00;;
5805;SDS011;2929;50.810;8.342;2022-11-20T05:17:02;20.73;;;10.77;;
5805;SDS011;2929;50.810;8.342;2022-11-20T05:19:29;21.47;;;11.13;;
5805;SDS011;2929;50.810;8.342;2022-11-20T05:21:56;19.00;;;10.47;;
5805;SDS011;2929;50.810;8.342;2022-11-20T05:24:23;17.87;;;10.40;;
5805;SDS011;2929;50.810;8.342;2022-11-20T05:26:50;21.00;;;11.23;;
5805;SDS011;2929;50.810;8.342;2022-11-20T05:29:17;17.60;;;11.20;;
5805;SDS011;2929;50.810;8.342;2022-11-20T05:31:45;17.60;;;10.57;;
5805;SDS011;2929;50.810;8.342;2022-11-20T05:34:12;18.90;;;10.30;;
5805;SDS011;2929;50.810;8.342;2022-11-20T05:36:39;21.40;;;11.00;;
5805;SDS011;2929;50.810;8.342;2022-11-20T05:39:06;20.00;;;11.07;;
5805;SDS011;2929;50.810;8.342;2022-11-20T05:41:33;19.10;;;11.53;;
5805;SDS011;2929;50.810;8.342;2022-11-20T05:44:00;19.37;;;10.50;;
5805;SDS011;2929;50.810;8.342;2022-11-20T05:46:27;20.83;;;10.97;;
5805;SDS011;2929;50.810;8.342;2022-11-20T05:48:56;20.47;;;11.30;;
5805;SDS011;2929;50.810;8.342;2022-11-20T05:51:24;25.00;;;12.77;;
5805;SDS011;2929;50.810;8.342;2022-11-20T05:53:52;22.57;;;12.30;;
5805;SDS011;2929;50.810;8.342;2022-11-20T05:56:19;20.43;;;11.60;;
5805;SDS011;2929;50.810;8.342;2022-11-20T05:58:47;20.60;;;11.13;;
5805;SDS011;2929;50.810;8.342;2022-11-20T06:01:16;21.03;;;11.17;;
5805;SDS011;2929;50.810;8.342;2022-11-20T06:03:44;24.43;;;12.70;;
5805;SDS011;2929;50.810;8.342;2022-11-20T06:06:14;24.70;;;12.40;;
5805;SDS011;2929;50.810;8.342;2022-11-20T06:08:41;22.10;;;12.30;;
5805;SDS011;2929;50.810;8.342;2022-11-20T06:11:09;31.70;;;12.40;;
5805;SDS011;2929;50.810;8.342;2022-11-20T06:13:38;26.20;;;12.50;;
5805;SDS011;2929;50.810;8.342;2022-11-20T06:16:06;23.57;;;12.17;;
5805;SDS011;2929;50.810;8.342;2022-11-20T06:18:33;28.80;;;12.20;;
5805;SDS011;2929;50.810;8.342;2022-11-20T06:21:01;22.80;;;12.00;;
5805;SDS011;2929;50.810;8.342;2022-11-20T06:23:31;25.30;;;12.20;;
5805;SDS011;2929;50.810;8.342;2022-11-20T06:26:00;24.77;;;12.93;;
5805;SDS011;2929;50.810;8.342;2022-11-20T06:28:28;27.80;;;13.03;;
5805;SDS011;2929;50.810;8.342;2022-11-20T06:30:55;22.60;;;12.50;;
5805;SDS011;2929;50.810;8.342;2022-11-20T06:33:22;32.70;;;15.80;;
5805;SDS011;2929;50.810;8.342;2022-11-20T06:35:49;28.03;;;13.87;;
5805;SDS011;2929;50.810;8.342;2022-11-20T06:38:16;32.97;;;15.00;;
5805;SDS011;2929;50.810;8.342;2022-11-20T06:40:44;29.50;;;14.80;;
5805;SDS011;2929;50.810;8.342;2022-11-20T06:43:11;25.90;;;13.57;;
5805;SDS011;2929;50.810;8.342;2022-11-20T06:45:38;29.40;;;13.77;;
5805;SDS011;2929;50.810;8.342;2022-11-20T06:48:05;26.10;;;13.37;;
5805;SDS011;2929;50.810;8.342;2022-11-20T06:50:32;30.30;;;14.43;;
5805;SDS011;2929;50.810;8.342;2022-11-20T06:53:00;29.57;;;14.37;;
5805;SDS011;2929;50.810;8.342;2022-11-20T06:55:28;32.00;;;15.63;;
5805;SDS011;2929;50.810;8.342;2022-11-20T06:57:57;28.70;;;14.17;;
5805;SDS011;2929;50.810;8.342;2022-11-20T07:00:24;30.00;;;14.13;;
5805;SDS011;2929;50.810;8.342;2022-11-20T07:02:51;24.67;;;13.43;;
5805;SDS011;2929;50.810;8.342;2022-11-20T07:05:18;30.23;;;14.40;;
5805;SDS011;2929;50.810;8.342;2022-11-20T07:07:45;31.30;;;15.23;;
5805;SDS011;2929;50.810;8.342;2022-11-20T07:10:12;25.80;;;14.30;;
5805;SDS011;2929;50.810;8.342;2022-11-20T07:12:39;33.13;;;14.80;;
5805;SDS011;2929;50.810;8.342;2022-11-20T07:15:08;33.67;;;15.80;;
5805;SDS011;2929;50.810;8.342;2022-11-20T07:17:35;25.53;;;13.77;;
5805;SDS011;2929;50.810;8.342;2022-11-20T07:20:02;35.47;;;16.80;;
5805;SDS011;2929;50.810;8.342;2022-11-20T07:22:29;33.13;;;15.23;;
5805;SDS011;2929;50.810;8.342;2022-11-20T07:24:56;27.10;;;14.07;;
5805;SDS011;2929;50.810;8.342;2022-11-20T07:27:23;30.43;;;13.53;;
5805;SDS011;2929;50.810;8.342;2022-11-20T07:29:50;31.50;;;14.63;;
5805;SDS011;2929;50.810;8.342;2022-11-20T07:32:19;34.20;;;15.40;;
5805;SDS011;2929;50.810;8.342;2022-11-20T07:34:46;32.77;;;15.80;;
5805;SDS011;2929;50.810;8.342;2022-11-20T07:37:13;34.50;;;17.30;;
5805;SDS011;2929;50.810;8.342;2022-11-20T07:39:40;33.37;;;16.73;;
5805;SDS011;2929;50.810;8.342;2022-11-20T07:42:07;31.50;;;14.80;;
5805;SDS011;2929;50.810;8.342;2022-11-20T07:44:36;33.83;;;14.50;;
5805;SDS011;2929;50.810;8.342;2022-11-20T07:47:03;35.40;;;15.90;;
5805;SDS011;2929;50.810;8.342;2022-11-20T07:49:31;35.33;;;15.30;;
5805;SDS011;2929;50.810;8.342;2022-11-20T07:51:58;38.13;;;16.03;;
5805;SDS011;2929;50.810;8.342;2022-11-20T07:54:25;36.57;;;14.97;;
5805;SDS011;2929;50.810;8.342;2022-11-20T07:56:52;35.50;;;15.37;;
5805;SDS011;2929;50.810;8.342;2022-11-20T07:59:20;39.90;;;17.33;;
5805;SDS011;2929;50.810;8.342;2022-11-20T08:01:47;34.67;;;17.27;;
5805;SDS011;2929;50.810;8.342;2022-11-20T08:04:15;35.83;;;17.27;;
5805;SDS011;2929;50.810;8.342;2022-11-20T08:06:43;38.40;;;17.60;;
5805;SDS011;2929;50.810;8.342;2022-11-20T08:09:10;39.27;;;17.87;;
5805;SDS011;2929;50.810;8.342;2022-11-20T08:11:37;41.30;;;19.17;;
5805;SDS011;2929;50.810;8.342;2022-11-20T08:14:21;39.53;;;18.60;;
5805;SDS011;2929;50.810;8.342;2022-11-20T08:16:49;42.77;;;19.40;;
5805;SDS011;2929;50.810;8.342;2022-11-20T08:19:16;39.20;;;17.47;;
5805;SDS011;2929;50.810;8.342;2022-11-20T08:21:45;31.80;;;15.90;;
5805;SDS011;2929;50.810;8.342;2022-11-20T08:24:12;38.80;;;16.90;;
5805;SDS011;2929;50.810;8.342;2022-11-20T08:26:40;41.30;;;19.50;;
5805;SDS011;2929;50.810;8.342;2022-11-20T08:29:07;40.77;;;17.90;;
5805;SDS011;2929;50.810;8.342;2022-11-20T08:31:34;48.77;;;23.80;;
5805;SDS011;2929;50.810;8.342;2022-11-20T08:34:01;39.47;;;20.00;;
5805;SDS011;2929;50.810;8.342;2022-11-20T08:36:28;37.60;;;17.43;;
5805;SDS011;2929;50.810;8.342;2022-11-20T08:39:00;47.10;;;20.30;;
5805;SDS011;2929;50.810;8.342;2022-11-20T08:41:28;38.50;;;19.37;;
5805;SDS011;2929;50.810;8.342;2022-11-20T08:43:58;38.20;;;18.73;;
5805;SDS011;2929;50.810;8.342;2022-11-20T08:46:27;38.17;;;17.70;;
5805;SDS011;2929;50.810;8.342;2022-11-20T08:48:58;55.03;;;22.37;;
5805;SDS011;2929;50.810;8.342;2022-11-20T08:51:25;34.70;;;16.17;;
5805;SDS011;2929;50.810;8.342;2022-11-20T08:53:52;39.07;;;19.37;;
5805;SDS011;2929;50.810;8.342;2022-11-20T08:56:20;36.60;;;17.80;;
5805;SDS011;2929;50.810;8.342;2022-11-20T08:58:49;33.53;;;17.03;;
5805;SDS011;2929;50.810;8.342;2022-11-20T09:01:17;45.60;;;19.70;;
5805;SDS011;2929;50.810;8.342;2022-11-20T09:03:45;36.43;;;16.90;;
5805;SDS011;2929;50.810;8.342;2022-11-20T09:06:12;36.37;;;18.03;;
5805;SDS011;2929;50.810;8.342;2022-11-20T09:08:40;37.70;;;17.47;;
5805;SDS011;2929;50.810;8.342;2022-11-20T09:11:07;31.90;;;16.67;;
5805;SDS011;2929;50.810;8.342;2022-11-20T09:13:36;31.93;;;15.70;;
5805;SDS011;2929;50.810;8.342;2022-11-20T09:16:04;28.00;;;12.50;;
5805;SDS011;2929;50.810;8.342;2022-11-20T09:18:32;25.53;;;12.27;;
5805;SDS011;2929;50.810;8.342;2022-11-20T09:21:01;20.60;;;10.57;;
5805;SDS011;2929;50.810;8.342;2022-11-20T09:23:31;22.87;;;11.10;;
5805;SDS011;2929;50.810;8.342;2022-11-20T09:26:01;22.63;;;10.90;;
5805;SDS011;2929;50.810;8.342;2022-11-20T09:28:29;19.70;;;10.90;;
5805;SDS011;2929;50.810;8.342;2022-11-20T09:30:58;28.33;;;12.40;;
5805;SDS011;2929;50.810;8.342;2022-11-20T09:33:25;24.17;;;12.47;;
5805;SDS011;2929;50.810;8.342;2022-11-20T09:35:52;21.20;;;10.13;;
5805;SDS011;2929;50.810;8.342;2022-11-20T09:38:19;24.67;;;11.87;;
5805;SDS011;2929;50.810;8.342;2022-11-20T09:40:49;20.63;;;9.80;;
5805;SDS011;2929;50.810;8.342;2022-11-20T09:43:21;19.63;;;9.50;;
5805;SDS011;2929;50.810;8.342;2022-11-20T09:46:01;19.93;;;10.90;;
5805;SDS011;2929;50.810;8.342;2022-11-20T09:48:42;19.00;;;10.23;;
5805;SDS011;2929;50.810;8.342;2022-11-20T09:51:22;19.00;;;10.30;;
5805;SDS011;2929;50.810;8.342;2022-11-20T09:54:02;19.13;;;9.30;;
5805;SDS011;2929;50.810;8.342;2022-11-20T09:56:39;20.90;;;10.50;;
5805;SDS011;2929;50.810;8.342;2022-11-20T09:59:14;22.37;;;10.80;;
5805;SDS011;2929;50.810;8.342;2022-11-20T10:01:54;17.23;;;8.77;;
5805;SDS011;2929;50.810;8.342;2022-11-20T10:04:21;19.83;;;9.57;;
5805;SDS011;2929;50.810;8.342;2022-11-20T10:06:51;17.73;;;9.10;;
5805;SDS011;2929;50.810;8.342;2022-11-20T10:09:24;16.90;;;8.60;;
5805;SDS011;2929;50.810;8.342;2022-11-20T10:11:59;15.70;;;8.43;;
5805;SDS011;2929;50.810;8.342;2022-11-20T10:14:36;18.40;;;8.60;;
5805;SDS011;2929;50.810;8.342;2022-11-20T10:17:15;20.10;;;8.83;;
5805;SDS011;2929;50.810;8.342;2022-11-20T10:19:52;18.07;;;8.80;;
5805;SDS011;2929;50.810;8.342;2022-11-20T10:22:35;15.97;;;9.00;;
5805;SDS011;2929;50.810;8.342;2022-11-20T10:25:13;17.90;;;8.90;;
5805;SDS011;2929;50.810;8.342;2022-11-20T10:27:48;19.67;;;11.40;;
5805;SDS011;2929;50.810;8.342;2022-11-20T10:30:30;19.00;;;9.47;;
5805;SDS011;2929;50.810;8.342;2022-11-20T10:33:05;18.17;;;9.60;;
5805;SDS011;2929;50.810;8.342;2022-11-20T10:35:38;16.07;;;9.10;;
5805;SDS011;2929;50.810;8.342;2022-11-20T10:38:09;15.50;;;7.97;;
5805;SDS011;2929;50.810;8.342;2022-11-20T10:40:43;16.70;;;8.90;;
5805;SDS011;2929;50.810;8.342;2022-11-20T10:43:13;17.67;;;9.57;;
5805;SDS011;2929;50.810;8.342;2022-11-20T10:45:45;13.67;;;8.30;;
5805;SDS011;2929;50.810;8.342;2022-11-20T10:48:22;18.40;;;10.63;;
5805;SDS011;2929;50.810;8.342;2022-11-20T10:50:56;19.30;;;9.77;;
5805;SDS011;2929;50.810;8.342;2022-11-20T10:53:42;18.30;;;9.80;;
5805;SDS011;2929;50.810;8.342;2022-11-20T10:56:17;16.83;;;9.90;;
5805;SDS011;2929;50.810;8.342;2022-11-20T10:58:51;16.30;;;8.60;;
5805;SDS011;2929;50.810;8.342;2022-11-20T11:01:26;13.73;;;7.90;;
5805;SDS011;2929;50.810;8.342;2022-11-20T11:03:55;16.70;;;8.70;;
5805;SDS011;2929;50.810;8.342;2022-11-20T11:06:25;13.47;;;8.17;;
5805;SDS011;2929;50.810;8.342;2022-11-20T11:08:57;16.60;;;9.30;;
5805;SDS011;2929;50.810;8.342;2022-11-20T11:11:29;15.27;;;8.30;;
5805;SDS011;2929;50.810;8.342;2022-11-20T11:14:04;13.43;;;8.23;;
5805;SDS011;2929;50.810;8.342;2022-11-20T11:16:32;15.43;;;8.97;;
5805;SDS011;2929;50.810;8.342;2022-11-20T11:19:07;23.40;;;10.70;;
5805;SDS011;2929;50.810;8.342;2022-11-20T11:21:39;17.17;;;8.40;;
5805;SDS011;2929;50.810;8.342;2022-11-20T11:24:18;14.00;;;7.83;;
5805;SDS011;2929;50.810;8.342;2022-11-20T11:26:58;15.20;;;8.83;;
5805;SDS011;2929;50.810;8.342;2022-11-20T11:29:29;15.40;;;9.00;;
5805;SDS011;2929;50.810;8.342;2022-11-20T11:32:07;19.27;;;9.50;;
5805;SDS011;2929;50.810;8.342;2022-11-20T11:34:36;17.73;;;9.27;;
5805;SDS011;2929;50.810;8.342;2022-11-20T11:37:03;16.87;;;9.90;;
5805;SDS011;2929;50.810;8.342;2022-11-20T11:39:32;15.47;;;8.77;;
5805;SDS011;2929;50.810;8.342;2022-11-20T11:42:00;13.30;;;8.03;;
5805;SDS011;2929;50.810;8.342;2022-11-20T11:44:28;18.17;;;9.23;;
5805;SDS011;2929;50.810;8.342;2022-11-20T11:47:18;16.60;;;9.00;;
5805;SDS011;2929;50.810;8.342;2022-11-20T11:49:50;17.93;;;7.70;;
5805;SDS011;2929;50.810;8.342;2022-11-20T11:55:19;18.27;;;8.10;;
5805;SDS011;2929;50.810;8.342;2022-11-20T11:57:53;15.13;;;8.67;;
5805;SDS011;2929;50.810;8.342;2022-11-20T12:00:26;15.37;;;8.40;;
5805;SDS011;2929;50.810;8.342;2022-11-20T12:02:55;14.90;;;7.83;;
5805;SDS011;2929;50.810;8.342;2022-11-20T12:05:32;14.37;;;9.00;;
5805;SDS011;2929;50.810;8.342;2022-11-20T12:08:03;16.80;;;9.03;;
5805;SDS011;2929;50.810;8.342;2022-11-20T12:10:38;13.20;;;8.30;;
5805;SDS011;2929;50.810;8.342;2022-11-20T12:13:20;16.20;;;8.33;;
5805;SDS011;2929;50.810;8.342;2022-11-20T12:15:56;16.30;;;8.73;;
5805;SDS011;2929;50.810;8.342;2022-11-20T12:18:24;15.20;;;8.47;;
5805;SDS011;2929;50.810;8.342;2022-11-20T12:20:56;14.07;;;7.77;;
5805;SDS011;2929;50.810;8.342;2022-11-20T12:23:35;12.93;;;8.73;;
5805;SDS011;2929;50.810;8.342;2022-11-20T12:26:11;18.77;;;9.80;;
5805;SDS011;2929;50.810;8.342;2022-11-20T12:28:48;16.00;;;9.20;;
5805;SDS011;2929;50.810;8.342;2022-11-20T12:31:26;22.50;;;10.00;;
5805;SDS011;2929;50.810;8.342;2022-11-20T12:34:11;19.03;;;10.53;;
5805;SDS011;2929;50.810;8.342;2022-11-20T12:36:50;14.73;;;8.67;;
5805;SDS011;2929;50.810;8.342;2022-11-20T12:39:27;20.73;;;10.80;;
5805;SDS011;2929;50.810;8.342;2022-11-20T12:42:04;21.70;;;11.67;;
5805;SDS011;2929;50.810;8.342;2022-11-20T12:45:10;18.33;;;9.80;;
5805;SDS011;2929;50.810;8.342;2022-11-20T12:47:58;15.57;;;8.67;;
5805;SDS011;2929;50.810;8.342;2022-11-20T12:50:36;24.20;;;10.90;;
5805;SDS011;2929;50.810;8.342;2022-11-20T12:53:12;19.80;;;9.70;;
5805;SDS011;2929;50.810;8.342;2022-11-20T12:55:53;20.13;;;11.00;;
5805;SDS011;2929;50.810;8.342;2022-11-20T12:58:25;21.10;;;10.60;;
5805;SDS011;2929;50.810;8.342;2022-11-20T13:01:01;19.10;;;10.87;;
5805;SDS011;2929;50.810;8.342;2022-11-20T13:03:54;24.37;;;11.40;;
5805;SDS011;2929;50.810;8.342;2022-11-20T13:06:25;24.53;;;13.20;;
5805;SDS011;2929;50.810;8.342;2022-11-20T13:08:54;22.60;;;11.87;;
5805;SDS011;2929;50.810;8.342;2022-11-20T13:11:24;28.27;;;11.73;;
5805;SDS011;2929;50.810;8.342;2022-11-20T13:14:02;23.40;;;12.93;;
5805;SDS011;2929;50.810;8.342;2022-11-20T13:16:36;23.47;;;11.40;;
5805;SDS011;2929;50.810;8.342;2022-11-20T13:19:09;23.00;;;11.97;;
5805;SDS011;2929;50.810;8.342;2022-11-20T13:21:38;24.20;;;12.60;;
5805;SDS011;2929;50.810;8.342;2022-11-20T13:24:20;21.67;;;12.27;;
5805;SDS011;2929;50.810;8.342;2022-11-20T13:29:58;24.17;;;12.70;;
5805;SDS011;2929;50.810;8.342;2022-11-20T13:32:27;20.53;;;10.63;;
5805;SDS011;2929;50.810;8.342;2022-11-20T13:34:58;22.17;;;12.20;;
5805;SDS011;2929;50.810;8.342;2022-11-20T13:37:28;25.70;;;12.83;;
5805;SDS011;2929;50.810;8.342;2022-11-20T13:40:20;21.77;;;11.00;;
5805;SDS011;2929;50.810;8.342;2022-11-20T13:42:54;21.27;;;11.77;;
5805;SDS011;2929;50.810;8.342;2022-11-20T13:45:23;22.77;;;12.10;;
5805;SDS011;2929;50.810;8.342;2022-11-20T13:47:52;25.07;;;11.90;;
5805;SDS011;2929;50.810;8.342;2022-11-20T13:50:21;22.63;;;12.47;;
5805;SDS011;2929;50.810;8.342;2022-11-20T13:53:08;23.30;;;11.97;;
5805;SDS011;2929;50.810;8.342;2022-11-20T13:55:49;22.00;;;12.30;;
5805;SDS011;2929;50.810;8.342;2022-11-20T13:58:29;26.77;;;12.70;;
5805;SDS011;2929;50.810;8.342;2022-11-20T14:01:08;24.60;;;12.90;;
5805;SDS011;2929;50.810;8.342;2022-11-20T14:03:37;25.73;;;12.30;;
5805;SDS011;2929;50.810;8.342;2022-11-20T14:06:10;24.63;;;12.53;;
5805;SDS011;2929;50.810;8.342;2022-11-20T14:08:40;22.70;;;12.30;;
5805;SDS011;2929;50.810;8.342;2022-11-20T14:11:16;23.23;;;12.80;;
5805;SDS011;2929;50.810;8.342;2022-11-20T14:13:52;27.93;;;12.83;;
5805;SDS011;2929;50.810;8.342;2022-11-20T14:16:21;29.70;;;13.93;;
5805;SDS011;2929;50.810;8.342;2022-11-20T14:18:49;24.97;;;13.47;;
5805;SDS011;2929;50.810;8.342;2022-11-20T14:21:25;23.17;;;12.30;;
5805;SDS011;2929;50.810;8.342;2022-11-20T14:23:54;24.60;;;13.17;;
5805;SDS011;2929;50.810;8.342;2022-11-20T14:26:30;26.83;;;13.77;;
5805;SDS011;2929;50.810;8.342;2022-11-20T14:28:58;27.27;;;13.53;;
5805;SDS011;2929;50.810;8.342;2022-11-20T14:31:26;25.10;;;13.83;;
5805;SDS011;2929;50.810;8.342;2022-11-20T14:33:54;29.33;;;14.70;;
5805;SDS011;2929;50.810;8.342;2022-11-20T14:36:24;29.50;;;14.90;;
5805;SDS011;2929;50.810;8.342;2022-11-20T14:38:51;30.27;;;14.03;;
5805;SDS011;2929;50.810;8.342;2022-11-20T14:41:19;23.87;;;13.20;;
5805;SDS011;2929;50.810;8.342;2022-11-20T14:43:51;29.70;;;14.73;;
5805;SDS011;2929;50.810;8.342;2022-11-20T14:46:22;27.43;;;13.90;;
5805;SDS011;2929;50.810;8.342;2022-11-20T14:48:50;22.20;;;12.03;;
5805;SDS011;2929;50.810;8.342;2022-11-20T14:51:28;28.30;;;14.33;;
5805;SDS011;2929;50.810;8.342;2022-11-20T14:54:07;29.57;;;14.67;;
5805;SDS011;2929;50.810;8.342;2022-11-20T14:56:38;28.63;;;14.07;;
5805;SDS011;2929;50.810;8.342;2022-11-20T14:59:06;26.80;;;12.87;;
5805;SDS011;2929;50.810;8.342;2022-11-20T15:01:34;30.03;;;13.73;;
5805;SDS011;2929;50.810;8.342;2022-11-20T15:04:04;34.07;;;15.10;;
5805;SDS011;2929;50.810;8.342;2022-11-20T15:06:33;29.07;;;14.27;;
5805;SDS011;2929;50.810;8.342;2022-11-20T15:09:01;34.00;;;15.37;;
5805;SDS011;2929;50.810;8.342;2022-11-20T15:11:29;32.20;;;16.20;;
5805;SDS011;2929;50.810;8.342;2022-11-20T15:13:58;27.63;;;13.00;;
5805;SDS011;2929;50.810;8.342;2022-11-20T15:16:30;30.83;;;14.47;;
5805;SDS011;2929;50.810;8.342;2022-11-20T15:18:58;27.20;;;14.07;;
5805;SDS011;2929;50.810;8.342;2022-11-20T15:21:26;38.43;;;15.00;;